Time;durP1;ratioP1;P1;durP2;ratioP2;P2;SDS_P1;SDS_P2;PMS_P1;PMS_P2;Temp;Humidity;BMP_temperature;BMP_pressure;BME280_temperature;BME280_humidity;BME280_pressure;Samples;Min_cycle;Max_cycle;Signal;HPM_P1;HPM_P2
2022/12/20 00:00:16;;;;;;;9.38;4.25;;;;;;;9.32;100.00;101118.69;5067514;28;20041;-36
2022/12/20 00:02:41;;;;;;;8.40;4.07;;;;;;;9.36;100.00;101126.25;5065245;28;20032;-37
2022/12/20 00:05:07;;;;;;;6.40;4.15;;;;;;;9.35;100.00;101129.97;5074372;28;20039;-36
2022/12/20 00:07:33;;;;;;;12.38;4.10;;;;;;;9.36;100.00;101123.56;5072148;28;20074;-38
2022/12/20 00:09:58;;;;;;;7.32;4.30;;;;;;;9.36;100.00;101115.50;5074220;28;20043;-36
2022/12/20 00:12:23;;;;;;;7.57;4.00;;;;;;;9.37;100.00;101111.84;5053897;28;20425;-36
2022/12/20 00:14:49;;;;;;;8.95;4.43;;;;;;;9.34;100.00;101119.38;5053579;28;20032;-36
2022/12/20 00:17:14;;;;;;;7.40;4.10;;;;;;;9.32;100.00;101118.69;5058598;28;20028;-37
2022/12/20 00:19:40;;;;;;;7.88;4.03;;;;;;;9.29;100.00;101125.22;5070530;28;20056;-37
2022/12/20 00:22:05;;;;;;;17.73;4.38;;;;;;;9.28;100.00;101123.56;5055743;28;20035;-37
2022/12/20 00:24:31;;;;;;;9.80;3.90;;;;;;;9.30;100.00;101116.19;5073275;28;20142;-37
2022/12/20 00:26:57;;;;;;;12.88;4.32;;;;;;;9.31;100.00;101109.78;5073156;28;20024;-36
2022/12/20 00:29:22;;;;;;;13.52;4.43;;;;;;;9.37;100.00;101100.22;5073251;28;20530;-37
2022/12/20 00:31:47;;;;;;;9.98;4.65;;;;;;;9.37;100.00;101100.22;5073015;28;20121;-37
2022/12/20 00:34:13;;;;;;;7.90;4.22;;;;;;;9.30;100.00;101115.34;5070409;28;20025;-36
2022/12/20 00:36:39;;;;;;;11.95;4.93;;;;;;;9.30;100.00;101116.19;5053975;28;20031;-37
2022/12/20 00:39:04;;;;;;;12.23;4.45;;;;;;;9.29;100.00;101111.81;5056124;28;20021;-36
2022/12/20 00:41:32;;;;;;;12.13;4.60;;;;;;;9.29;100.00;101114.50;5054194;28;20498;-36
2022/12/20 00:43:57;;;;;;;9.45;4.00;;;;;;;9.26;100.00;101101.41;5053277;28;20033;-37
2022/12/20 00:46:23;;;;;;;9.65;4.18;;;;;;;9.21;100.00;101104.56;5052965;28;20027;-36
2022/12/20 00:48:49;;;;;;;9.15;4.53;;;;;;;9.19;100.00;101082.44;5053628;28;20111;-36
2022/12/20 00:51:18;;;;;;;11.27;4.38;;;;;;;9.10;100.00;101096.84;5053390;28;20102;-37
2022/12/20 00:53:44;;;;;;;8.25;4.80;;;;;;;9.09;100.00;101075.56;5053774;28;20029;-37
2022/12/20 00:56:10;;;;;;;7.35;4.05;;;;;;;9.05;100.00;101088.47;5052966;28;20029;-38
2022/12/20 00:58:37;;;;;;;8.38;5.00;;;;;;;9.00;100.00;101078.25;5053604;28;20041;-37
2022/12/20 01:01:04;;;;;;;8.85;4.47;;;;;;;8.97;100.00;101083.91;5053569;28;20126;-37
2022/12/20 01:03:29;;;;;;;10.23;4.55;;;;;;;8.95;100.00;101074.34;5052662;28;20052;-38
2022/12/20 01:06:00;;;;;;;8.43;4.40;;;;;;;8.90;100.00;101076.69;5052673;28;20127;-38
2022/12/20 01:08:27;;;;;;;8.98;4.47;;;;;;;8.91;100.00;101079.22;5061337;28;20025;-38
2022/12/20 01:11:02;;;;;;;7.88;4.30;;;;;;;8.93;100.00;101071.84;5061996;28;20033;-38
2022/12/20 01:13:28;;;;;;;8.93;4.55;;;;;;;8.94;100.00;101068.16;5052185;28;20115;-37
2022/12/20 01:15:53;;;;;;;9.40;4.47;;;;;;;8.91;100.00;101068.47;5052462;28;20058;-38
2022/12/20 01:18:19;;;;;;;10.82;4.47;;;;;;;8.99;100.00;101063.13;5052501;28;20033;-38
2022/12/20 01:20:44;;;;;;;6.72;4.03;;;;;;;9.05;100.00;101058.09;5052315;28;20064;-38
2022/12/20 01:23:10;;;;;;;9.23;4.13;;;;;;;9.09;100.00;101059.44;5062490;28;20395;-39
2022/12/20 01:25:35;;;;;;;6.18;3.70;;;;;;;9.10;100.00;101050.38;5071785;28;20383;-38
2022/12/20 01:28:00;;;;;;;7.05;3.90;;;;;;;9.08;100.00;101038.97;5071701;28;20078;-38
2022/12/20 01:30:25;;;;;;;11.20;4.18;;;;;;;9.06;100.00;101030.22;5071770;28;20020;-38
2022/12/20 01:32:51;;;;;;;8.55;3.95;;;;;;;9.08;100.00;101031.75;5069326;28;20061;-37
2022/12/20 01:35:17;;;;;;;10.10;3.97;;;;;;;9.12;100.00;101032.25;5060942;28;20028;-37
2022/12/20 01:37:42;;;;;;;7.22;3.35;;;;;;;9.18;100.00;101026.22;5065034;28;20037;-38
2022/12/20 01:40:09;;;;;;;9.38;3.60;;;;;;;9.26;100.00;101038.78;5054607;28;20431;-38
2022/12/20 01:42:35;;;;;;;7.53;3.58;;;;;;;9.22;100.00;101028.41;5075832;28;20033;-38
2022/12/20 01:45:00;;;;;;;7.97;3.35;;;;;;;9.24;100.00;101028.22;5073274;28;20029;-38
2022/12/20 01:47:29;;;;;;;6.30;3.50;;;;;;;9.30;100.00;101030.25;5070122;28;20028;-38
2022/12/20 01:49:55;;;;;;;4.93;3.17;;;;;;;9.28;100.00;101026.88;5069220;28;20028;-39
2022/12/20 01:52:27;;;;;;;5.80;3.17;;;;;;;9.35;100.00;101027.88;5056906;28;20025;-39
2022/12/20 01:54:57;;;;;;;11.15;3.75;;;;;;;9.42;100.00;101034.25;5063336;28;20052;-39
2022/12/20 01:57:45;;;;;;;9.07;3.55;;;;;;;9.43;100.00;101035.94;5064876;28;20037;-37
2022/12/20 02:00:11;;;;;;;9.23;3.45;;;;;;;9.47;100.00;101051.72;5065723;28;20028;-37
2022/12/20 02:02:36;;;;;;;7.10;3.50;;;;;;;9.47;100.00;101024.84;5061714;28;20024;-37
2022/12/20 02:05:02;;;;;;;5.13;3.50;;;;;;;9.44;100.00;101037.59;5050814;28;20021;-37
2022/12/20 02:07:30;;;;;;;7.65;3.75;;;;;;;9.44;100.00;101045.66;5056900;28;20163;-37
2022/12/20 02:09:55;;;;;;;6.03;3.35;;;;;;;9.48;100.00;101042.63;5062898;28;20031;-37
2022/12/20 02:12:26;;;;;;;8.18;3.20;;;;;;;9.45;100.00;101039.28;5062528;28;20483;-38
2022/12/20 02:15:30;;;;;;;11.55;3.72;;;;;;;9.51;100.00;101043.16;5057028;28;20040;-37
2022/12/20 02:18:01;;;;;;;10.95;3.90;;;;;;;9.45;100.00;101049.19;5070617;28;20024;-37
2022/12/20 02:21:00;;;;;;;9.75;3.97;;;;;;;9.41;100.00;101043.31;5056430;28;20039;-38
2022/12/20 02:23:45;;;;;;;10.63;3.75;;;;;;;9.42;100.00;101039.63;5069731;28;20263;-38
2022/12/20 02:26:48;;;;;;;13.20;4.07;;;;;;;9.38;100.00;101053.56;5070988;28;20017;-38
2022/12/20 02:29:13;;;;;;;10.77;4.35;;;;;;;9.41;100.00;101040.63;5069563;28;20036;-38
2022/12/20 02:31:42;;;;;;;8.20;4.80;;;;;;;9.45;100.00;101030.38;5055572;28;20392;-37
2022/12/20 02:34:09;;;;;;;8.90;4.97;;;;;;;9.44;100.00;101037.59;5057976;28;20364;-37
2022/12/20 02:36:34;;;;;;;8.82;4.43;;;;;;;9.47;100.00;101040.97;5063359;28;20365;-38
2022/12/20 02:39:00;;;;;;;9.98;4.88;;;;;;;9.45;100.00;101033.06;5067799;28;20034;-38
2022/12/20 02:41:29;;;;;;;11.93;4.40;;;;;;;9.43;100.00;101030.56;5057057;28;20035;-36
2022/12/20 02:46:43;;;;;;;7.13;3.35;;;;;;;9.45;100.00;101011.56;5070997;28;20545;-37
2022/12/20 02:49:12;;;;;;;5.80;3.78;;;;;;;9.49;100.00;101022.84;5069682;28;20016;-37
2022/12/20 02:51:38;;;;;;;5.15;3.50;;;;;;;9.50;100.00;101008.38;5068748;28;20116;-38
2022/12/20 02:54:04;;;;;;;8.63;4.18;;;;;;;9.49;100.00;101002.19;5055145;28;20535;-38
2022/12/20 02:56:48;;;;;;;6.35;3.58;;;;;;;9.54;100.00;101004.34;5050614;28;20108;-37
2022/12/20 02:59:38;;;;;;;5.82;3.60;;;;;;;9.55;100.00;100995.28;5050645;28;20426;-37
2022/12/20 03:02:04;;;;;;;8.93;3.60;;;;;;;9.55;100.00;100997.97;5066653;28;20032;-37
2022/12/20 03:04:31;;;;;;;6.03;3.47;;;;;;;9.61;100.00;101011.56;5069308;28;20032;-38
2022/12/20 03:07:00;;;;;;;7.05;3.95;;;;;;;9.63;100.00;101014.06;5060438;28;20085;-36
2022/12/20 03:09:26;;;;;;;7.28;3.90;;;;;;;9.64;100.00;100988.88;5067170;28;20464;-37
2022/12/20 03:11:52;;;;;;;6.03;3.67;;;;;;;9.64;100.00;101010.38;5070500;28;20112;-36
2022/12/20 03:14:18;;;;;;;6.47;3.70;;;;;;;9.63;100.00;101008.69;5070504;28;20111;-37
2022/12/20 03:16:43;;;;;;;5.13;3.50;;;;;;;9.64;100.00;100997.78;5070503;28;20095;-36
2022/12/20 03:19:08;;;;;;;8.10;3.78;;;;;;;9.60;100.00;101020.63;5063721;28;20021;-37
2022/12/20 03:21:34;;;;;;;5.97;3.38;;;;;;;9.64;100.00;101005.00;5052531;28;20498;-37
2022/12/20 03:23:59;;;;;;;6.82;3.90;;;;;;;9.66;100.00;101008.34;5052121;28;20055;-38
2022/12/20 03:26:24;;;;;;;6.47;3.58;;;;;;;9.68;100.00;100991.03;5052620;28;20025;-38
2022/12/20 03:28:50;;;;;;;9.00;3.42;;;;;;;9.67;100.00;100988.53;5055859;28;20040;-38
2022/12/20 03:31:15;;;;;;;8.02;3.83;;;;;;;9.66;100.00;100997.59;5067482;28;20040;-38
2022/12/20 03:33:41;;;;;;;6.15;3.42;;;;;;;9.60;100.00;100998.28;5059508;28;20029;-38
2022/12/20 03:36:06;;;;;;;7.75;3.65;;;;;;;9.59;100.00;100991.25;5053790;28;20043;-38
2022/12/20 03:38:32;;;;;;;6.55;3.53;;;;;;;9.64;100.00;100987.03;5063280;28;20055;-37
2022/12/20 03:40:57;;;;;;;8.07;4.22;;;;;;;9.64;100.00;100994.25;5055955;28;20414;-36
2022/12/20 03:43:22;;;;;;;7.55;3.78;;;;;;;9.66;100.00;101000.28;5056312;28;20052;-37
2022/12/20 03:45:48;;;;;;;7.07;3.78;;;;;;;9.64;100.00;101015.75;5075727;28;20078;-37
2022/12/20 03:48:13;;;;;;;8.90;3.75;;;;;;;9.72;100.00;101002.28;5073617;28;20016;-37
2022/12/20 03:50:38;;;;;;;7.95;3.83;;;;;;;9.73;100.00;101028.16;5074705;28;20032;-36
2022/12/20 03:53:04;;;;;;;5.05;3.28;;;;;;;9.71;100.00;101005.97;5074481;28;20024;-37
2022/12/20 03:55:29;;;;;;;8.05;3.53;;;;;;;9.67;100.00;101007.34;5072411;28;20028;-37
2022/12/20 03:57:54;;;;;;;8.13;3.58;;;;;;;9.67;100.00;101004.66;5073482;28;20403;-37
2022/12/20 04:00:20;;;;;;;6.18;3.65;;;;;;;9.66;100.00;101008.34;5071395;28;20028;-37
2022/12/20 04:02:45;;;;;;;6.88;3.28;;;;;;;9.66;100.00;101001.13;5065001;28;20060;-36
2022/12/20 04:05:11;;;;;;;7.78;3.85;;;;;;;9.62;100.00;101001.66;5054654;28;20081;-38
2022/12/20 04:07:36;;;;;;;10.38;4.03;;;;;;;9.55;100.00;101014.09;5057374;28;20020;-37
2022/12/20 04:10:01;;;;;;;7.47;4.30;;;;;;;9.53;100.00;101008.03;5059599;28;20087;-36
2022/12/20 04:12:27;;;;;;;9.88;4.07;;;;;;;9.55;100.00;100992.59;5051751;28;20158;-38
2022/12/20 04:14:52;;;;;;;14.18;4.85;;;;;;;9.55;100.00;100989.91;5065121;28;20032;-38
2022/12/20 04:17:18;;;;;;;8.80;4.68;;;;;;;9.51;100.00;100996.66;5069087;28;20029;-38
2022/12/20 04:19:43;;;;;;;12.85;4.75;;;;;;;9.47;100.00;101009.56;5057982;28;20028;-37
2022/12/20 04:22:08;;;;;;;8.90;4.55;;;;;;;9.38;100.00;100995.31;5066420;28;20029;-37
2022/12/20 04:24:34;;;;;;;9.15;4.80;;;;;;;9.34;100.00;101004.69;5073876;28;20100;-37
2022/12/20 04:26:59;;;;;;;8.75;4.55;;;;;;;9.31;100.00;100991.63;5053570;28;20034;-37
2022/12/20 04:29:24;;;;;;;10.63;5.47;;;;;;;9.32;100.00;100992.44;5054102;28;20120;-37
2022/12/20 04:31:50;;;;;;;9.50;5.43;;;;;;;9.32;100.00;100997.81;5053657;28;20332;-37
2022/12/20 04:34:15;;;;;;;7.40;5.40;;;;;;;9.27;100.00;100998.34;5053462;28;20037;-36
2022/12/20 04:36:40;;;;;;;11.52;6.25;;;;;;;9.22;100.00;101001.53;5053847;28;20356;-37
2022/12/20 04:39:06;;;;;;;9.88;5.65;;;;;;;9.21;100.00;100990.97;5056761;28;20060;-37
2022/12/20 04:41:31;;;;;;;12.85;5.95;;;;;;;9.21;100.00;100977.53;5053582;28;20055;-37
2022/12/20 04:43:57;;;;;;;16.95;6.80;;;;;;;9.21;100.00;100978.34;5053145;28;20029;-37
2022/12/20 04:46:24;;;;;;;9.93;5.82;;;;;;;9.23;100.00;100970.97;5061535;28;20040;-36
2022/12/20 04:48:49;;;;;;;11.80;6.07;;;;;;;9.23;100.00;100978.19;5064882;28;20496;-36
2022/12/20 04:51:15;;;;;;;9.65;5.50;;;;;;;9.23;100.00;100980.88;5071169;28;20063;-37
2022/12/20 04:53:46;;;;;;;14.25;5.57;;;;;;;9.26;100.00;100972.50;5051526;28;20064;-37
2022/12/20 04:56:19;;;;;;;12.80;5.60;;;;;;;9.26;100.00;100968.97;5051129;28;20029;-38
2022/12/20 04:58:46;;;;;;;11.50;5.63;;;;;;;9.29;100.00;100969.47;5051908;28;20029;-38
2022/12/20 05:01:12;;;;;;;14.27;5.22;;;;;;;9.35;100.00;100955.38;5065356;28;20671;-37
2022/12/20 05:03:37;;;;;;;8.13;4.47;;;;;;;9.37;100.00;100956.03;5069365;28;20214;-38
2022/12/20 05:06:04;;;;;;;7.63;4.70;;;;;;;9.38;100.00;100955.03;5070941;28;20024;-38
2022/12/20 05:08:29;;;;;;;8.18;4.53;;;;;;;9.39;100.00;100945.94;5067223;28;20033;-37
2022/12/20 05:10:54;;;;;;;14.50;4.60;;;;;;;9.40;100.00;100950.31;5050746;28;20036;-38
2022/12/20 05:13:20;;;;;;;9.90;4.20;;;;;;;9.42;100.00;100948.28;5069535;28;20044;-38
2022/12/20 05:15:49;;;;;;;4.75;3.72;;;;;;;9.45;100.00;100942.59;5069501;28;20032;-38
2022/12/20 05:18:14;;;;;;;11.23;4.25;;;;;;;9.45;100.00;100941.72;5073283;28;20485;-38
2022/12/20 05:20:40;;;;;;;11.52;4.35;;;;;;;9.47;100.00;100928.97;5054189;28;20056;-38
2022/12/20 05:28:34;;;;;;;7.22;4.05;;;;;;;9.49;100.00;100910.00;5061819;28;20098;-37
2022/12/20 05:31:00;;;;;;;8.60;3.88;;;;;;;9.50;100.00;100923.25;5054060;28;20440;-37
2022/12/20 05:33:25;;;;;;;7.50;4.05;;;;;;;9.53;100.00;100919.38;5068572;28;20036;-36
2022/12/20 05:35:51;;;;;;;7.57;4.10;;;;;;;9.53;100.00;100916.69;5063816;28;20036;-37
2022/12/20 05:38:16;;;;;;;8.27;3.85;;;;;;;9.54;100.00;100907.63;5052015;28;20064;-37
2022/12/20 05:40:42;;;;;;;8.27;3.67;;;;;;;9.54;100.00;100907.63;5058648;28;20061;-38
2022/12/20 05:43:07;;;;;;;7.40;4.20;;;;;;;9.55;100.00;100915.50;5060791;28;20248;-38
2022/12/20 05:45:34;;;;;;;9.35;3.72;;;;;;;9.58;100.00;100906.25;5068033;28;20035;-38
2022/12/20 05:47:59;;;;;;;8.40;4.28;;;;;;;9.58;100.00;100904.41;5072155;28;20103;-38
2022/12/20 05:50:25;;;;;;;8.40;3.70;;;;;;;9.60;100.00;100893.50;5071650;28;20045;-38
2022/12/20 05:52:50;;;;;;;5.97;3.50;;;;;;;9.61;100.00;100903.22;5062504;28;20040;-38
2022/12/20 05:55:15;;;;;;;6.22;3.63;;;;;;;9.66;100.00;100890.09;5065447;28;20060;-38
2022/12/20 05:57:41;;;;;;;3.50;3.10;;;;;;;9.67;100.00;100897.16;5075337;28;20029;-37
2022/12/20 06:00:11;;;;;;;5.30;3.33;;;;;;;9.70;100.00;100896.81;5062182;28;20028;-37
2022/12/20 06:02:37;;;;;;;10.48;3.50;;;;;;;9.73;100.00;100901.81;5056796;28;20115;-37
2022/12/20 06:05:02;;;;;;;6.88;3.90;;;;;;;9.78;100.00;100894.06;5064870;28;20083;-37
2022/12/20 06:07:28;;;;;;;4.50;3.25;;;;;;;9.92;100.00;100888.97;5054073;28;20127;-37
2022/12/20 06:09:54;;;;;;;10.27;3.70;;;;;;;9.97;100.00;100886.59;5062539;28;20029;-37
2022/12/20 06:12:20;;;;;;;8.55;2.90;;;;;;;10.02;100.00;100889.59;5063651;28;20025;-36
2022/12/20 06:14:45;;;;;;;5.40;3.20;;;;;;;10.02;100.00;100885.03;5070480;28;20555;-37
2022/12/20 06:17:11;;;;;;;3.67;2.88;;;;;;;10.05;100.00;100890.06;5053957;28;20033;-37
2022/12/20 06:19:38;;;;;;;6.55;3.20;;;;;;;10.04;100.00;100893.78;5054990;28;20471;-37
2022/12/20 06:22:04;;;;;;;5.20;2.60;;;;;;;10.15;100.00;100900.59;5064399;28;20037;-37
2022/12/20 06:24:29;;;;;;;6.57;3.03;;;;;;;10.15;100.00;100895.22;5062002;28;20435;-39
2022/12/20 06:26:55;;;;;;;6.80;3.10;;;;;;;10.18;100.00;100900.25;5065546;28;20451;-37
2022/12/20 06:29:23;;;;;;;7.10;2.78;;;;;;;10.17;100.00;100897.75;5064886;28;21414;-38
2022/12/20 06:31:48;;;;;;;6.47;3.53;;;;;;;10.20;100.00;100887.44;5053861;28;20308;-38
2022/12/20 06:34:14;;;;;;;4.93;2.90;;;;;;;10.22;100.00;100906.13;5053317;28;20025;-36
2022/12/20 06:36:40;;;;;;;7.68;3.35;;;;;;;10.23;100.00;100887.09;5051565;28;20052;-37
2022/12/20 06:39:08;;;;;;;4.68;3.15;;;;;;;10.24;100.00;100904.94;5070004;28;20448;-37
2022/12/20 06:41:33;;;;;;;4.22;3.10;;;;;;;10.22;100.00;100887.28;5069638;28;20028;-37
2022/12/20 06:43:59;;;;;;;7.55;3.17;;;;;;;10.22;100.00;100890.81;5063530;28;20645;-37
2022/12/20 06:46:24;;;;;;;5.57;3.08;;;;;;;10.25;100.00;100890.44;5069747;28;20086;-37
2022/12/20 06:48:49;;;;;;;10.90;3.28;;;;;;;10.22;100.00;100880.06;5051734;28;20036;-37
2022/12/20 06:51:16;;;;;;;7.03;3.10;;;;;;;10.19;100.00;100880.41;5065266;28;20031;-37
2022/12/20 06:53:41;;;;;;;8.60;2.80;;;;;;;10.18;100.00;100889.47;5056231;28;20099;-38
2022/12/20 06:56:07;;;;;;;5.45;2.80;;;;;;;10.19;100.00;100896.56;5057599;28;20119;-37
2022/12/20 06:58:32;;;;;;;6.50;3.35;;;;;;;10.23;100.00;100889.78;5055525;28;20065;-38
2022/12/20 07:00:58;;;;;;;7.60;3.53;;;;;;;10.23;100.00;100879.03;5067211;28;20365;-37
2022/12/20 07:03:23;;;;;;;4.18;2.63;;;;;;;10.25;100.00;100885.06;5069099;28;20032;-37
2022/12/20 07:05:53;;;;;;;4.00;2.53;;;;;;;10.28;100.00;100879.34;5063530;28;20668;-37
2022/12/20 07:08:19;;;;;;;10.38;3.17;;;;;;;10.27;100.00;100891.16;5060618;28;20025;-38
2022/12/20 07:10:45;;;;;;;5.75;3.03;;;;;;;10.29;100.00;100902.56;5067834;28;20131;-36
2022/12/20 07:13:10;;;;;;;7.30;2.80;;;;;;;10.29;100.00;100886.44;5049940;28;20347;-39
2022/12/20 07:15:35;;;;;;;4.50;2.95;;;;;;;10.32;100.00;100888.75;5062448;28;20044;-38
2022/12/20 07:18:02;;;;;;;4.97;2.92;;;;;;;10.30;100.00;100877.34;5062551;28;20062;-36
2022/12/20 07:20:27;;;;;;;2.60;2.25;;;;;;;10.30;100.00;100898.84;5065968;28;20114;-36
2022/12/20 07:22:53;;;;;;;8.98;2.70;;;;;;;10.29;100.00;100881.06;5070322;28;20480;-37
2022/12/20 07:25:18;;;;;;;5.75;2.80;;;;;;;10.29;100.00;100872.97;5063823;28;20032;-37
2022/12/20 07:27:48;;;;;;;5.00;3.10;;;;;;;10.25;100.00;100879.69;5054118;28;20045;-37
2022/12/20 07:30:15;;;;;;;8.60;3.20;;;;;;;10.21;100.00;100872.16;5051078;28;20044;-37
2022/12/20 07:32:40;;;;;;;6.05;2.97;;;;;;;10.19;100.00;100872.34;5067340;28;20071;-37
2022/12/20 07:35:06;;;;;;;6.15;3.13;;;;;;;10.15;100.00;100887.16;5069713;28;20111;-38
2022/12/20 07:37:31;;;;;;;5.63;2.58;;;;;;;10.11;100.00;100885.84;5068736;28;21622;-37
2022/12/20 07:39:57;;;;;;;5.22;3.17;;;;;;;10.06;100.00;100886.38;5061958;28;20075;-37
2022/12/20 07:42:22;;;;;;;8.07;3.22;;;;;;;10.01;100.00;100877.16;5064106;28;20042;-38
2022/12/20 07:44:48;;;;;;;9.95;3.55;;;;;;;10.02;100.00;100878.84;5057812;28;20037;-36
2022/12/20 07:47:13;;;;;;;7.65;2.88;;;;;;;10.00;100.00;100892.44;5050787;28;20538;-38
2022/12/20 07:49:38;;;;;;;5.85;2.55;;;;;;;10.00;100.00;100878.16;5050365;28;20044;-36
2022/12/20 07:52:05;;;;;;;5.30;2.80;;;;;;;9.99;100.00;100896.16;5061402;28;20078;-37
2022/12/20 07:54:33;;;;;;;7.63;2.85;;;;;;;9.89;100.00;100887.47;5057998;28;20071;-37
2022/12/20 07:57:07;;;;;;;5.22;3.38;;;;;;;9.79;100.00;100895.75;5054453;28;20100;-37
2022/12/20 07:59:38;;;;;;;7.65;3.05;;;;;;;9.73;100.00;100917.94;5068246;28;20111;-38
2022/12/20 08:02:04;;;;;;;9.23;3.53;;;;;;;9.63;100.00;100910.09;5065052;28;20036;-35
2022/12/20 08:04:29;;;;;;;7.57;3.63;;;;;;;9.47;100.00;100918.22;5058647;28;20028;-46
2022/12/20 08:06:57;;;;;;;10.55;3.97;;;;;;;9.35;100.00;100908.88;5049744;28;20395;-45
2022/12/20 08:09:24;;;;;;;9.90;4.45;;;;;;;9.25;100.00;100917.13;5056163;28;20040;-45
2022/12/20 08:11:50;;;;;;;13.77;4.20;;;;;;;9.17;100.00;100927.88;5066570;28;20032;-45
2022/12/20 08:14:17;;;;;;;8.65;4.35;;;;;;;9.07;100.00;100916.47;5066219;28;20674;-46
2022/12/20 08:16:42;;;;;;;11.80;4.53;;;;;;;9.03;100.00;100921.34;5058543;28;20032;-44
2022/12/20 08:19:08;;;;;;;9.82;4.47;;;;;;;8.98;100.00;100924.53;5061873;28;20089;-43
2022/12/20 08:21:33;;;;;;;12.00;4.72;;;;;;;8.98;100.00;100919.19;5055347;28;20561;-42
2022/12/20 08:23:58;;;;;;;10.13;4.88;;;;;;;8.98;100.00;100919.19;5069298;28;20174;-43
2022/12/20 08:26:24;;;;;;;10.40;4.50;;;;;;;8.98;100.00;100918.34;5069520;28;20057;-43
2022/12/20 08:28:49;;;;;;;10.95;4.47;;;;;;;8.97;100.00;100920.16;5069168;28;20063;-42
2022/12/20 08:31:16;;;;;;;11.50;4.30;;;;;;;9.04;100.00;100916.81;5062004;28;20033;-42
2022/12/20 08:33:41;;;;;;;14.93;4.20;;;;;;;9.02;100.00;100919.66;5059125;28;20111;-42
2022/12/20 08:36:11;;;;;;;7.15;4.13;;;;;;;9.04;100.00;100916.81;5067263;28;20116;-42
2022/12/20 08:38:37;;;;;;;9.43;4.03;;;;;;;9.07;100.00;100916.47;5051633;28;20086;-42
2022/12/20 08:41:04;;;;;;;7.82;4.03;;;;;;;9.08;100.00;100923.50;5050891;28;20084;-43
2022/12/20 08:43:31;;;;;;;8.38;3.65;;;;;;;9.08;100.00;100907.41;5056168;28;20499;-41
2022/12/20 08:45:56;;;;;;;6.90;3.60;;;;;;;9.09;100.00;100914.47;5061527;28;20029;-42
2022/12/20 08:48:22;;;;;;;11.05;4.15;;;;;;;9.12;100.00;100914.13;5070228;28;20024;-41
2022/12/20 08:50:56;;;;;;;4.75;3.40;;;;;;;9.13;100.00;100922.00;5064523;28;20033;-41
2022/12/20 08:53:22;;;;;;;7.95;3.35;;;;;;;9.15;100.00;100913.78;5067141;28;20502;-40
2022/12/20 08:55:47;;;;;;;9.93;3.88;;;;;;;9.20;100.00;100914.09;5059533;28;20124;-40
2022/12/20 08:58:14;;;;;;;9.27;3.90;;;;;;;9.21;100.00;100919.28;5051935;28;20080;-40
2022/12/20 09:00:40;;;;;;;5.78;3.80;;;;;;;9.23;100.00;100921.81;5056296;28;20056;-40
2022/12/20 09:03:06;;;;;;;7.50;3.47;;;;;;;9.24;100.00;100926.16;5056991;28;20155;-41
2022/12/20 09:05:32;;;;;;;9.98;3.88;;;;;;;9.22;100.00;100914.78;5051238;28;20142;-39
2022/12/20 09:07:57;;;;;;;8.32;3.83;;;;;;;9.22;100.00;100922.84;5054059;28;20079;-40
2022/12/20 09:10:22;;;;;;;8.35;4.10;;;;;;;9.18;100.00;100918.81;5053503;28;20098;-40
2022/12/20 09:12:48;;;;;;;8.18;4.38;;;;;;;9.18;100.00;100926.84;5070359;28;20032;-40
2022/12/20 09:15:13;;;;;;;13.43;4.40;;;;;;;9.16;100.00;100915.44;5069677;28;20039;-40
2022/12/20 09:17:39;;;;;;;13.98;4.90;;;;;;;9.17;100.00;100914.44;5056006;28;20468;-40
2022/12/20 09:20:05;;;;;;;12.00;4.90;;;;;;;9.18;100.00;100903.53;5048700;28;20079;-40
2022/12/20 09:22:30;;;;;;;12.15;4.95;;;;;;;9.15;100.00;100916.47;5053645;28;20075;-40
2022/12/20 09:24:56;;;;;;;15.00;5.07;;;;;;;9.16;100.00;100926.19;5061439;28;20025;-41
2022/12/20 09:27:21;;;;;;;12.13;4.80;;;;;;;9.19;100.00;100918.63;5059253;28;20098;-42
2022/12/20 09:29:47;;;;;;;9.15;5.10;;;;;;;9.24;100.00;100918.09;5067593;28;20085;-41
2022/12/20 09:32:12;;;;;;;10.25;4.45;;;;;;;9.21;100.00;100918.44;5053349;28;20403;-41
2022/12/20 09:34:38;;;;;;;9.63;4.30;;;;;;;9.22;100.00;100917.47;5062443;28;20040;-41
2022/12/20 09:37:03;;;;;;;7.68;4.65;;;;;;;9.24;100.00;100920.78;5051154;28;20098;-40
2022/12/20 09:39:29;;;;;;;11.52;4.97;;;;;;;9.22;100.00;100925.50;5052694;28;20043;-41
2022/12/20 09:41:54;;;;;;;11.48;4.82;;;;;;;9.22;100.00;100920.16;5062403;28;20055;-40
2022/12/20 09:44:20;;;;;;;15.50;4.93;;;;;;;9.20;100.00;100916.78;5059689;28;20056;-40
2022/12/20 09:46:52;;;;;;;11.73;4.60;;;;;;;9.20;100.00;100923.00;5069594;28;20360;-40
2022/12/20 09:49:18;;;;;;;11.25;4.57;;;;;;;9.22;100.00;100929.03;5068566;28;20111;-39
2022/12/20 09:52:01;;;;;;;12.93;5.40;;;;;;;9.20;100.00;100919.47;5057926;28;20127;-38
2022/12/20 09:54:59;;;;;;;12.23;5.43;;;;;;;9.21;100.00;100929.19;5060600;28;20071;-41
2022/12/20 09:57:42;;;;;;;10.52;5.03;;;;;;;9.21;100.00;100923.81;5047747;28;20087;-42
2022/12/20 10:00:13;;;;;;;18.52;5.45;;;;;;;9.20;100.00;100932.91;5066314;28;20040;-44
2022/12/20 10:02:38;;;;;;;11.35;5.18;;;;;;;9.17;100.00;100922.50;5053944;28;20447;-44
2022/12/20 10:05:04;;;;;;;11.75;5.15;;;;;;;9.16;100.00;100926.19;5067663;28;20152;-43
2022/12/20 10:07:48;;;;;;;10.98;4.95;;;;;;;9.18;100.00;100919.63;5061091;28;20036;-43
2022/12/20 10:10:28;;;;;;;13.15;5.25;;;;;;;9.17;100.00;100927.88;5049257;28;20058;-43
2022/12/20 10:13:16;;;;;;;13.00;5.40;;;;;;;9.19;100.00;100920.50;5049612;28;20033;-42
2022/12/20 10:16:14;;;;;;;13.25;5.32;;;;;;;9.17;100.00;100919.81;5067530;28;20040;-42
2022/12/20 10:18:58;;;;;;;15.43;6.63;;;;;;;9.20;100.00;100931.03;5066698;28;20028;-40
2022/12/20 10:22:01;;;;;;;16.02;6.35;;;;;;;9.19;100.00;100925.88;5068930;28;20038;-41
2022/12/20 10:24:29;;;;;;;15.10;4.97;;;;;;;9.20;100.00;100928.34;5054368;28;20032;-41
2022/12/20 10:26:56;;;;;;;9.48;5.35;;;;;;;9.20;100.00;100922.16;5053144;28;20470;-42
2022/12/20 10:29:22;;;;;;;12.40;5.82;;;;;;;9.20;100.00;100931.03;5054599;28;20075;-42
2022/12/20 10:31:54;;;;;;;16.75;7.05;;;;;;;9.22;100.00;100920.97;5060353;28;20024;-42
2022/12/20 10:34:19;;;;;;;12.25;5.30;;;;;;;9.24;100.00;100920.78;5051708;28;20024;-42
2022/12/20 10:36:45;;;;;;;11.55;5.40;;;;;;;9.26;100.00;100928.69;5060460;28;20024;-42
2022/12/20 10:39:10;;;;;;;13.13;5.53;;;;;;;9.27;100.00;100919.59;5066995;28;20029;-41
2022/12/20 10:41:39;;;;;;;18.08;5.80;;;;;;;9.28;100.00;100915.94;5052028;28;20033;-42
2022/12/20 10:44:19;;;;;;;18.27;5.68;;;;;;;9.29;100.00;100910.38;5058153;28;20036;-40
2022/12/20 10:46:48;;;;;;;10.88;5.30;;;;;;;9.31;100.00;100939.75;5066737;28;20055;-39
2022/12/20 10:49:31;;;;;;;13.63;5.55;;;;;;;9.31;100.00;100929.84;5066098;28;20430;-41
2022/12/20 10:52:08;;;;;;;12.80;5.97;;;;;;;9.32;100.00;100925.31;5067523;28;20085;-39
2022/12/20 10:54:41;;;;;;;15.25;6.20;;;;;;;9.33;100.00;100906.34;5068187;28;20070;-40
2022/12/20 10:57:12;;;;;;;17.83;6.10;;;;;;;9.33;100.00;100906.34;5064652;28;20032;-40
2022/12/20 10:59:41;;;;;;;14.50;6.97;;;;;;;9.35;100.00;100907.03;5063905;28;20264;-39
2022/12/20 11:02:26;;;;;;;10.90;5.60;;;;;;;9.37;100.00;100913.06;5058213;28;20025;-40
2022/12/20 11:05:10;;;;;;;11.77;5.72;;;;;;;9.37;100.00;100912.19;5062975;28;20506;-39
2022/12/20 11:07:39;;;;;;;10.40;6.15;;;;;;;9.35;100.00;100917.75;5057660;28;20033;-40
2022/12/20 11:10:18;;;;;;;14.23;6.15;;;;;;;9.33;100.00;100919.78;5048991;28;20051;-40
2022/12/20 11:13:01;;;;;;;11.38;5.85;;;;;;;9.34;100.00;100913.38;5050570;28;20116;-40
2022/12/20 11:15:28;;;;;;;10.00;5.45;;;;;;;9.35;100.00;100909.69;5049170;28;20025;-40
2022/12/20 11:18:09;;;;;;;17.15;6.13;;;;;;;9.37;100.00;100912.19;5061832;28;20040;-40
2022/12/20 11:21:00;;;;;;;15.73;5.72;;;;;;;9.37;100.00;100914.88;5066060;28;20533;-39
2022/12/20 11:23:45;;;;;;;18.10;6.40;;;;;;;9.37;100.00;100902.31;5050791;28;20029;-41
2022/12/20 11:26:19;;;;;;;15.00;6.63;;;;;;;9.37;100.00;100909.50;5059011;28;20052;-40
2022/12/20 11:28:44;;;;;;;12.02;6.60;;;;;;;9.36;100.00;100913.22;5047700;28;20123;-40
2022/12/20 11:31:37;;;;;;;14.30;6.05;;;;;;;9.40;100.00;100911.84;5070246;28;20107;-40
2022/12/20 11:34:17;;;;;;;10.65;6.20;;;;;;;9.40;100.00;100904.66;5068193;28;20028;-40